Time;durP1;ratioP1;P1;durP2;ratioP2;P2;SDS_P1;SDS_P2;PMS_P1;PMS_P2;Temp;Humidity;BMP_temperature;BMP_pressure;BME280_temperature;BME280_humidity;BME280_pressure;Samples;Min_cycle;Max_cycle;Signal;HPM_P1;HPM_P2
2021/10/05 00:01:09;;;;;;;8.82;5.55;;;9.20;99.90;;;;;;5036948;28;20025;-91
2021/10/05 00:03:38;;;;;;;11.68;6.35;;;9.20;99.90;;;;;;5036748;28;20493;-91
2021/10/05 00:06:04;;;;;;;11.35;5.05;;;9.10;99.90;;;;;;5036684;28;20036;-90
2021/10/05 00:08:39;;;;;;;17.83;5.60;;;9.00;99.90;;;;;;5036615;28;20025;-91
2021/10/05 00:11:14;;;;;;;7.13;5.05;;;9.00;99.90;;;;;;5036756;28;20025;-91
2021/10/05 00:13:42;;;;;;;8.73;5.63;;;9.00;99.90;;;;;;5036445;28;20025;-92
2021/10/05 00:16:29;;;;;;;21.75;5.90;;;9.10;99.90;;;;;;5036523;28;20031;-92
2021/10/05 00:19:01;;;;;;;20.35;7.30;;;9.10;99.90;;;;;;5036456;28;20041;-92
2021/10/05 00:21:30;;;;;;;11.98;6.50;;;9.10;99.90;;;;;;5036334;28;20033;-91
2021/10/05 00:24:07;;;;;;;14.80;5.55;;;9.00;99.90;;;;;;5036336;28;20028;-90
2021/10/05 00:26:36;;;;;;;11.27;6.40;;;9.10;99.90;;;;;;5033583;28;20094;-92
2021/10/05 00:29:16;;;;;;;9.63;5.65;;;9.20;99.90;;;;;;5036085;28;20512;-92
2021/10/05 00:31:47;;;;;;;20.20;5.88;;;9.10;99.90;;;;;;5036681;28;20029;-92
2021/10/05 00:34:21;;;;;;;9.07;5.90;;;9.10;99.90;;;;;;5035899;28;20060;-91
2021/10/05 00:36:55;;;;;;;13.02;5.78;;;9.10;99.90;;;;;;5036266;28;20021;-92
2021/10/05 00:39:28;;;;;;;20.08;5.95;;;9.10;99.90;;;;;;5036337;28;20108;-92
2021/10/05 00:42:07;;;;;;;17.08;6.18;;;9.10;99.90;;;;;;5036145;28;20061;-92
2021/10/05 00:44:42;;;;;;;18.10;6.20;;;9.00;99.90;;;;;;5036146;28;20054;-91
2021/10/05 00:47:32;;;;;;;10.38;5.15;;;8.90;99.90;;;;;;5036499;28;20108;-92
2021/10/05 00:50:14;;;;;;;15.55;5.60;;;8.90;99.90;;;;;;5012828;28;20037;-91
2021/10/05 00:52:51;;;;;;;15.52;4.90;;;8.80;99.90;;;;;;5036538;28;20029;-92
2021/10/05 00:55:22;;;;;;;19.02;6.05;;;8.80;99.90;;;;;;5036248;28;20058;-93
2021/10/05 00:57:54;;;;;;;14.30;6.20;;;8.60;99.90;;;;;;5036257;28;20025;-91
2021/10/05 01:00:36;;;;;;;15.10;6.30;;;8.70;99.90;;;;;;5035649;28;20036;-92
2021/10/05 01:03:27;;;;;;;14.10;5.68;;;8.70;99.90;;;;;;5036116;28;20094;-90
2021/10/05 01:05:53;;;;;;;12.27;5.95;;;8.70;99.90;;;;;;5035765;28;20029;-93
2021/10/05 01:08:37;;;;;;;9.85;5.40;;;8.70;99.90;;;;;;5035827;28;20107;-92
2021/10/05 01:11:30;;;;;;;11.85;6.95;;;8.70;99.90;;;;;;5035600;28;20485;-92
2021/10/05 01:14:01;;;;;;;13.07;6.28;;;8.60;99.90;;;;;;5035335;28;20033;-93
2021/10/05 01:16:30;;;;;;;11.80;6.25;;;8.60;99.90;;;;;;5035738;28;20028;-91
2021/10/05 01:18:55;;;;;;;9.93;6.15;;;8.70;99.90;;;;;;5031613;28;20493;-92
2021/10/05 01:24:34;;;;;;;14.18;7.10;;;8.70;99.90;;;;;;5053131;28;20507;-90
2021/10/05 01:27:16;;;;;;;14.70;7.82;;;8.80;99.90;;;;;;5035749;28;20506;-92
2021/10/05 01:29:50;;;;;;;12.35;6.90;;;8.80;99.90;;;;;;5035959;28;20481;-92
2021/10/05 01:32:18;;;;;;;12.48;7.30;;;8.80;99.90;;;;;;5053533;28;20029;-92
2021/10/05 01:38:04;;;;;;;12.95;6.72;;;8.80;99.90;;;;;;5056423;28;20025;-92
2021/10/05 01:40:33;;;;;;;14.93;6.95;;;8.80;99.90;;;;;;5039572;28;20040;-91
2021/10/05 01:43:05;;;;;;;10.07;6.88;;;8.80;99.90;;;;;;5039268;28;20036;-91
2021/10/05 01:45:40;;;;;;;24.85;7.40;;;8.90;99.90;;;;;;5039262;28;20025;-92
2021/10/05 01:51:40;;;;;;;18.83;7.93;;;9.00;99.90;;;;;;5054396;28;20112;-92
2021/10/05 01:54:11;;;;;;;10.20;6.97;;;9.20;99.90;;;;;;5039102;28;20017;-92
2021/10/05 01:56:53;;;;;;;10.38;7.70;;;9.20;99.90;;;;;;5039534;28;20021;-91
2021/10/05 01:59:21;;;;;;;9.40;6.93;;;9.20;99.90;;;;;;5039138;28;20060;-93
2021/10/05 02:01:52;;;;;;;13.45;7.93;;;9.20;99.90;;;;;;5039414;28;20021;-91
2021/10/05 02:04:24;;;;;;;17.67;6.97;;;9.20;99.90;;;;;;5038546;28;20079;-92
2021/10/05 02:07:06;;;;;;;13.00;6.30;;;9.30;99.90;;;;;;5039263;28;20021;-92
2021/10/05 02:09:34;;;;;;;9.93;6.70;;;9.20;99.90;;;;;;5039202;28;20035;-91
2021/10/05 02:12:03;;;;;;;22.60;7.55;;;9.20;99.90;;;;;;5038945;28;20057;-93
2021/10/05 02:14:34;;;;;;;10.32;6.40;;;9.20;99.90;;;;;;5038782;28;20057;-91
2021/10/05 02:17:08;;;;;;;15.98;6.78;;;9.10;99.90;;;;;;5039067;28;20478;-91
2021/10/05 02:19:43;;;;;;;16.08;6.55;;;9.10;99.90;;;;;;5039158;28;20115;-91
2021/10/05 02:22:20;;;;;;;15.35;6.65;;;9.10;99.90;;;;;;5039150;28;20045;-92
2021/10/05 02:24:50;;;;;;;17.95;7.28;;;9.10;99.90;;;;;;5038499;28;20108;-90
2021/10/05 02:27:20;;;;;;;16.67;7.53;;;9.20;99.90;;;;;;5038796;28;20651;-92
2021/10/05 02:29:50;;;;;;;18.30;7.38;;;9.10;99.90;;;;;;5038503;28;20124;-91
2021/10/05 02:32:18;;;;;;;12.48;7.50;;;9.10;99.90;;;;;;5038831;28;20497;-92
2021/10/05 02:34:47;;;;;;;14.10;6.70;;;9.10;99.90;;;;;;5038225;28;20124;-91
2021/10/05 02:37:23;;;;;;;11.88;6.72;;;9.00;99.90;;;;;;5038619;28;20051;-92
2021/10/05 02:39:59;;;;;;;18.70;6.72;;;9.00;99.90;;;;;;5038240;28;20029;-92
2021/10/05 02:42:40;;;;;;;9.38;6.60;;;9.00;99.90;;;;;;5038566;28;20482;-91
2021/10/05 02:45:11;;;;;;;9.10;6.60;;;9.10;99.90;;;;;;5037783;28;20033;-92
2021/10/05 02:47:49;;;;;;;10.43;7.03;;;9.00;99.90;;;;;;5037715;28;20082;-91
2021/10/05 02:50:15;;;;;;;13.57;7.70;;;9.10;99.90;;;;;;5037225;28;20033;-93
2021/10/05 02:52:40;;;;;;;18.67;7.68;;;9.10;99.90;;;;;;5037936;28;20048;-93
2021/10/05 02:55:09;;;;;;;14.73;7.93;;;9.20;99.90;;;;;;5038055;28;20037;-92
2021/10/05 02:57:50;;;;;;;11.70;7.10;;;9.20;99.90;;;;;;5038489;28;20088;-92
2021/10/05 03:00:21;;;;;;;13.48;7.53;;;9.20;99.90;;;;;;5038260;28;20481;-92
2021/10/05 03:02:47;;;;;;;12.15;8.07;;;9.20;99.90;;;;;;5038107;28;20025;-92
2021/10/05 03:05:18;;;;;;;14.45;7.85;;;9.20;99.90;;;;;;5038298;28;20112;-92
2021/10/05 03:08:10;;;;;;;14.43;7.55;;;9.20;99.90;;;;;;5039852;28;20033;-94
2021/10/05 03:10:41;;;;;;;11.80;7.85;;;9.20;99.90;;;;;;5031504;28;20047;-92
2021/10/05 03:13:12;;;;;;;12.77;7.10;;;9.10;99.90;;;;;;5037860;28;20025;-92
2021/10/05 03:15:43;;;;;;;14.38;6.95;;;9.10;99.90;;;;;;5038199;28;20029;-92
2021/10/05 03:18:14;;;;;;;12.43;8.18;;;9.10;99.90;;;;;;5038216;28;20029;-92
2021/10/05 03:20:40;;;;;;;18.50;8.13;;;9.10;99.90;;;;;;5037832;28;20108;-93
2021/10/05 03:23:09;;;;;;;17.48;7.97;;;8.90;99.90;;;;;;5037868;28;20063;-92
2021/10/05 03:25:39;;;;;;;11.55;7.20;;;8.90;99.90;;;;;;5037388;28;20078;-92
2021/10/05 03:28:08;;;;;;;12.63;7.30;;;8.90;99.90;;;;;;5037866;28;20021;-91
2021/10/05 03:30:34;;;;;;;11.68;8.73;;;8.80;99.90;;;;;;5037740;28;20059;-92
2021/10/05 03:33:00;;;;;;;20.50;8.50;;;8.80;99.90;;;;;;5037423;28;20037;-92
2021/10/05 03:35:26;;;;;;;11.88;7.75;;;8.70;99.90;;;;;;5037498;28;20124;-91
2021/10/05 03:38:01;;;;;;;19.50;10.27;;;8.70;99.90;;;;;;5037834;28;20029;-92
2021/10/05 03:40:27;;;;;;;20.90;8.55;;;8.70;99.90;;;;;;5037334;28;20035;-92
2021/10/05 03:42:53;;;;;;;15.27;7.97;;;8.60;99.90;;;;;;5037436;28;20037;-91
2021/10/05 03:45:21;;;;;;;17.25;8.82;;;8.50;99.90;;;;;;5037278;28;20493;-91
2021/10/05 03:47:57;;;;;;;15.23;9.48;;;8.40;99.90;;;;;;5037454;28;20021;-91
2021/10/05 03:50:23;;;;;;;12.20;8.80;;;8.40;99.90;;;;;;5037535;28;20032;-92
2021/10/05 03:52:51;;;;;;;14.75;9.60;;;8.40;99.90;;;;;;5037595;28;20021;-92
2021/10/05 03:55:17;;;;;;;10.85;8.07;;;8.40;99.90;;;;;;5037102;28;20074;-91
2021/10/05 03:57:43;;;;;;;14.80;8.07;;;8.20;99.90;;;;;;5036966;28;20029;-91
2021/10/05 04:00:09;;;;;;;14.00;8.95;;;8.10;99.90;;;;;;5036597;28;20043;-92
2021/10/05 04:02:44;;;;;;;13.15;9.15;;;8.00;99.90;;;;;;5036556;28;20096;-92
2021/10/05 04:05:10;;;;;;;19.95;11.10;;;8.00;99.90;;;;;;5036781;28;20029;-93
2021/10/05 04:07:40;;;;;;;12.52;9.65;;;8.00;99.90;;;;;;5036932;28;20025;-92
2021/10/05 04:10:09;;;;;;;24.88;9.88;;;8.00;99.90;;;;;;5036938;28;20180;-91
2021/10/05 04:12:35;;;;;;;14.63;9.00;;;8.00;99.90;;;;;;5036546;28;20021;-92
2021/10/05 04:15:05;;;;;;;15.95;10.05;;;8.00;99.90;;;;;;5036246;28;20029;-91
2021/10/05 04:17:31;;;;;;;20.58;9.65;;;7.90;99.90;;;;;;5036330;28;20120;-92
2021/10/05 04:19:57;;;;;;;17.70;10.60;;;7.90;99.90;;;;;;5036299;28;20116;-92
2021/10/05 04:22:25;;;;;;;17.55;11.50;;;7.90;99.90;;;;;;5036502;28;20025;-91
2021/10/05 04:24:56;;;;;;;19.55;9.90;;;7.90;99.90;;;;;;5036388;28;20134;-90
2021/10/05 04:27:22;;;;;;;19.02;11.50;;;7.80;99.90;;;;;;5036683;28;20025;-93
2021/10/05 04:29:50;;;;;;;20.55;11.00;;;7.80;99.90;;;;;;5036371;28;20120;-90
2021/10/05 04:32:16;;;;;;;20.45;11.00;;;7.70;99.90;;;;;;5036260;28;20029;-91
2021/10/05 04:34:44;;;;;;;21.77;11.90;;;7.70;99.90;;;;;;5053822;28;20131;-90
2021/10/05 04:37:10;;;;;;;14.30;11.05;;;7.90;99.90;;;;;;5035964;28;20119;-91
2021/10/05 04:39:39;;;;;;;18.42;10.52;;;7.70;99.90;;;;;;5036271;28;20052;-93
2021/10/05 04:42:07;;;;;;;15.63;10.93;;;7.70;99.90;;;;;;5036274;28;20025;-92
2021/10/05 04:44:33;;;;;;;17.42;10.40;;;7.60;99.90;;;;;;5036324;28;20028;-91
2021/10/05 04:46:58;;;;;;;11.90;9.13;;;7.50;99.90;;;;;;5053735;28;20021;-92
2021/10/05 04:49:24;;;;;;;17.63;9.98;;;7.50;99.90;;;;;;5036127;28;20021;-92
2021/10/05 04:51:49;;;;;;;19.10;10.52;;;7.40;99.90;;;;;;5035802;28;20029;-90
2021/10/05 04:54:15;;;;;;;15.32;10.13;;;7.30;99.90;;;;;;5035709;28;20075;-91
2021/10/05 04:56:40;;;;;;;14.93;11.52;;;7.40;99.90;;;;;;5036081;28;20115;-92
2021/10/05 04:59:06;;;;;;;15.30;10.15;;;7.40;99.90;;;;;;5036216;28;20029;-91
2021/10/05 05:01:32;;;;;;;18.67;11.45;;;7.40;99.90;;;;;;5035917;28;20025;-91
2021/10/05 05:03:57;;;;;;;17.83;12.57;;;7.40;99.90;;;;;;5035971;28;20055;-91
2021/10/05 05:06:23;;;;;;;18.85;10.77;;;7.40;99.90;;;;;;5036124;28;20057;-91
2021/10/05 05:08:49;;;;;;;17.88;11.63;;;7.40;99.90;;;;;;5036038;28;20028;-91
2021/10/05 05:11:14;;;;;;;20.70;13.27;;;7.30;99.90;;;;;;5036414;28;20435;-92
2021/10/05 05:13:40;;;;;;;19.67;12.70;;;7.30;99.90;;;;;;5039892;28;20032;-92
2021/10/05 05:16:05;;;;;;;23.65;12.82;;;7.30;99.90;;;;;;5040109;28;20029;-92
2021/10/05 05:18:31;;;;;;;28.50;14.50;;;7.40;99.90;;;;;;5040028;28;20053;-92
2021/10/05 05:20:56;;;;;;;22.92;13.95;;;7.40;99.90;;;;;;5057587;28;20028;-91
2021/10/05 05:23:22;;;;;;;22.08;13.52;;;7.40;99.90;;;;;;5039899;28;20055;-90
2021/10/05 05:25:47;;;;;;;19.73;15.25;;;7.40;99.90;;;;;;5040140;28;20029;-90
2021/10/05 05:28:14;;;;;;;24.40;13.77;;;7.50;99.90;;;;;;5039546;28;20095;-93
2021/10/05 05:30:40;;;;;;;20.45;13.80;;;7.50;99.90;;;;;;5039718;28;20432;-91
2021/10/05 05:33:06;;;;;;;24.60;14.70;;;7.40;99.90;;;;;;5039684;28;20048;-92
2021/10/05 05:35:32;;;;;;;26.48;16.83;;;7.50;99.90;;;;;;5057425;28;20037;-92
2021/10/05 05:37:57;;;;;;;22.45;15.25;;;7.50;99.90;;;;;;5039508;28;20074;-91
2021/10/05 05:40:23;;;;;;;22.98;14.75;;;7.50;99.90;;;;;;5039796;28;20033;-93
2021/10/05 05:42:49;;;;;;;25.88;15.52;;;7.50;99.90;;;;;;5039457;28;20032;-92
2021/10/05 05:45:14;;;;;;;22.95;14.80;;;7.60;99.90;;;;;;5039365;28;20021;-91
2021/10/05 05:47:40;;;;;;;21.90;15.40;;;7.60;99.90;;;;;;5057152;28;20025;-92
2021/10/05 05:50:07;;;;;;;22.23;13.75;;;7.60;99.90;;;;;;5039588;28;20040;-92
2021/10/05 05:52:34;;;;;;;17.98;13.05;;;7.60;99.90;;;;;;5039674;28;20132;-91
2021/10/05 05:55:00;;;;;;;24.63;13.05;;;7.50;99.90;;;;;;5039074;28;20056;-91
2021/10/05 05:57:26;;;;;;;22.35;14.00;;;7.50;99.90;;;;;;5039193;28;20036;-92
2021/10/05 05:59:52;;;;;;;25.20;13.68;;;7.50;99.90;;;;;;5057090;28;20033;-94
2021/10/05 06:02:17;;;;;;;26.38;13.18;;;7.50;99.90;;;;;;5055097;28;20017;-91
2021/10/05 06:04:43;;;;;;;25.23;14.80;;;7.50;99.90;;;;;;5038678;28;20075;-93
2021/10/05 06:07:10;;;;;;;21.90;14.80;;;7.50;99.90;;;;;;5038517;28;20013;-92
2021/10/05 06:09:36;;;;;;;23.90;13.77;;;7.50;99.90;;;;;;5038802;28;20025;-92
2021/10/05 06:12:05;;;;;;;20.60;13.18;;;7.50;99.90;;;;;;5038706;28;20055;-92
2021/10/05 06:14:31;;;;;;;14.13;10.93;;;7.60;99.90;;;;;;5038688;28;20029;-92
2021/10/05 06:16:58;;;;;;;18.10;11.88;;;7.60;99.90;;;;;;5039024;28;20028;-92
2021/10/05 06:19:24;;;;;;;20.25;11.50;;;7.60;99.90;;;;;;5039128;28;20428;-92
2021/10/05 06:21:49;;;;;;;19.73;13.15;;;7.60;99.90;;;;;;5039197;28;20116;-93
2021/10/05 06:24:16;;;;;;;20.42;12.65;;;7.60;99.90;;;;;;5038983;28;20021;-91
2021/10/05 06:26:41;;;;;;;16.67;12.13;;;7.70;99.90;;;;;;5039517;28;20025;-91
2021/10/05 06:29:07;;;;;;;17.33;11.60;;;7.70;99.90;;;;;;5039860;28;20421;-91
2021/10/05 06:31:32;;;;;;;21.15;12.75;;;7.80;99.90;;;;;;5039734;28;20033;-92
2021/10/05 06:33:58;;;;;;;17.67;12.55;;;8.00;99.90;;;;;;5038932;28;20043;-93
2021/10/05 06:36:23;;;;;;;27.45;13.57;;;7.90;99.90;;;;;;5058942;28;20031;-93
2021/10/05 06:38:49;;;;;;;17.77;13.05;;;8.00;99.90;;;;;;5040298;28;20473;-92
2021/10/05 06:41:15;;;;;;;19.73;12.57;;;8.10;99.90;;;;;;5039436;28;20055;-92
2021/10/05 06:43:40;;;;;;;18.20;12.32;;;8.30;99.90;;;;;;5039312;28;20032;-91
2021/10/05 06:46:06;;;;;;;22.15;13.27;;;8.40;99.90;;;;;;5056745;28;20487;-92
2021/10/05 06:48:32;;;;;;;25.40;15.05;;;8.50;99.90;;;;;;5056634;28;20070;-92
2021/10/05 06:50:58;;;;;;;23.13;13.68;;;8.60;99.90;;;;;;5038906;28;20036;-92
2021/10/05 06:53:24;;;;;;;27.40;16.08;;;8.70;99.90;;;;;;5039840;28;20025;-92
2021/10/05 06:55:50;;;;;;;28.52;15.82;;;8.80;99.90;;;;;;5039264;28;20029;-94
2021/10/05 06:58:17;;;;;;;22.23;14.15;;;8.90;99.90;;;;;;5039146;28;20054;-94
2021/10/05 07:00:42;;;;;;;24.15;14.10;;;9.10;99.90;;;;;;5056332;28;20033;-90
2021/10/05 07:03:08;;;;;;;25.45;15.00;;;9.10;99.90;;;;;;5054949;28;20393;-91
2021/10/05 07:05:34;;;;;;;21.23;13.82;;;9.20;99.90;;;;;;5037648;28;20025;-90
2021/10/05 07:08:05;;;;;;;29.83;14.63;;;9.30;99.90;;;;;;5037319;28;20044;-91
2021/10/05 07:10:30;;;;;;;21.50;14.20;;;9.30;99.90;;;;;;5037437;28;20031;-91
2021/10/05 07:12:56;;;;;;;24.75;15.23;;;9.50;99.90;;;;;;5037467;28;20119;-88
2021/10/05 07:15:22;;;;;;;24.02;15.02;;;9.50;99.90;;;;;;5037086;28;20049;-90
2021/10/05 07:17:52;;;;;;;28.75;14.93;;;9.60;99.90;;;;;;5057049;28;20025;-90
2021/10/05 07:20:17;;;;;;;30.88;15.05;;;9.70;99.90;;;;;;5037354;28;20025;-90
2021/10/05 07:22:43;;;;;;;21.77;14.25;;;9.70;99.90;;;;;;5037391;28;20075;-91
2021/10/05 07:25:09;;;;;;;21.45;14.35;;;9.70;99.90;;;;;;5037034;28;20029;-91
2021/10/05 07:27:36;;;;;;;20.73;14.77;;;9.80;99.90;;;;;;5054991;28;20029;-89
2021/10/05 07:30:06;;;;;;;27.10;14.00;;;9.80;99.90;;;;;;5037768;28;20029;-91
2021/10/05 07:32:34;;;;;;;24.02;13.13;;;9.80;99.90;;;;;;5037920;28;20043;-92
2021/10/05 07:35:00;;;;;;;26.10;13.75;;;9.90;99.90;;;;;;5036517;28;20033;-90
2021/10/05 07:37:26;;;;;;;19.77;13.18;;;10.00;99.90;;;;;;5037362;28;20557;-91
2021/10/05 07:39:52;;;;;;;22.33;14.02;;;10.00;99.90;;;;;;5037053;28;20048;-91
2021/10/05 07:42:20;;;;;;;22.35;13.23;;;10.20;99.90;;;;;;5032260;28;20156;-91
2021/10/05 07:44:47;;;;;;;20.83;13.40;;;10.10;99.90;;;;;;5053914;28;20018;-89
2021/10/05 07:47:13;;;;;;;22.77;14.80;;;10.20;99.90;;;;;;5053533;28;20013;-88
2021/10/05 07:49:39;;;;;;;18.83;12.93;;;10.20;99.90;;;;;;5036453;28;20492;-89
2021/10/05 07:52:05;;;;;;;20.55;13.15;;;10.30;99.90;;;;;;5047766;28;20108;-90
2021/10/05 07:54:30;;;;;;;20.35;13.20;;;10.40;99.90;;;;;;5018559;28;20022;-91
2021/10/05 07:56:56;;;;;;;19.30;13.00;;;10.40;99.90;;;;;;5052210;28;20066;-91
2021/10/05 07:59:21;;;;;;;18.98;12.93;;;10.50;99.90;;;;;;5066441;28;20044;-91
2021/10/05 08:01:53;;;;;;;24.60;13.25;;;10.60;99.90;;;;;;5043455;28;20025;-90
2021/10/05 08:04:19;;;;;;;16.50;11.93;;;10.70;99.90;;;;;;5040988;28;20031;-91
2021/10/05 08:06:45;;;;;;;23.42;13.50;;;10.80;99.90;;;;;;5036226;28;20120;-90
2021/10/05 08:09:14;;;;;;;18.52;11.90;;;10.90;99.90;;;;;;5035623;28;20029;-88
2021/10/05 08:11:40;;;;;;;27.40;13.05;;;11.00;99.90;;;;;;5035722;28;20394;-89
2021/10/05 08:14:05;;;;;;;19.17;11.57;;;11.10;99.90;;;;;;5035194;28;20538;-88
2021/10/05 08:16:31;;;;;;;19.00;12.98;;;11.40;99.90;;;;;;5035515;28;20111;-89
2021/10/05 08:18:58;;;;;;;18.15;12.88;;;11.40;99.90;;;;;;5053199;28;20102;-88
2021/10/05 08:21:24;;;;;;;16.65;11.50;;;11.50;99.90;;;;;;5035970;28;20040;-88
2021/10/05 08:23:52;;;;;;;14.00;11.15;;;11.70;99.90;;;;;;5037598;28;20021;-89
2021/10/05 08:26:20;;;;;;;14.18;11.38;;;11.60;99.90;;;;;;5039387;28;20029;-92
2021/10/05 08:28:46;;;;;;;24.58;11.15;;;11.70;99.90;;;;;;5045271;28;20021;-90
2021/10/05 08:31:12;;;;;;;12.80;9.68;;;11.90;99.90;;;;;;5041005;28;20029;-93
2021/10/05 08:33:38;;;;;;;13.95;9.38;;;11.90;99.90;;;;;;5036918;28;20074;-92
2021/10/05 08:36:04;;;;;;;22.27;10.60;;;12.00;99.90;;;;;;5054358;28;20033;-89
2021/10/05 08:38:30;;;;;;;15.23;9.77;;;12.10;99.90;;;;;;5053734;28;20032;-91
2021/10/05 08:40:56;;;;;;;17.80;10.05;;;12.20;99.90;;;;;;5036533;28;20124;-90
2021/10/05 08:43:23;;;;;;;10.43;8.98;;;12.20;99.90;;;;;;5036194;28;20428;-91
2021/10/05 08:45:50;;;;;;;11.90;8.90;;;12.30;99.90;;;;;;5036175;28;20036;-91
2021/10/05 08:48:15;;;;;;;18.30;8.52;;;12.40;99.90;;;;;;5034691;28;20112;-88
2021/10/05 08:50:42;;;;;;;11.63;8.05;;;12.50;99.90;;;;;;5052579;28;20059;-89
2021/10/05 08:53:09;;;;;;;12.70;7.85;;;12.60;99.90;;;;;;5035001;28;20037;-90
2021/10/05 08:55:35;;;;;;;12.45;8.23;;;12.60;99.90;;;;;;5038374;28;20424;-88
2021/10/05 08:58:01;;;;;;;11.43;7.00;;;12.80;99.90;;;;;;5049814;28;20028;-90
2021/10/05 09:00:32;;;;;;;12.25;7.45;;;13.00;99.90;;;;;;5033818;28;20036;-88
2021/10/05 09:02:57;;;;;;;10.70;6.70;;;12.90;99.90;;;;;;5033714;28;20052;-89
2021/10/05 09:05:24;;;;;;;12.68;7.22;;;13.10;99.90;;;;;;5035295;28;20029;-89
2021/10/05 09:07:51;;;;;;;14.40;7.90;;;13.10;99.90;;;;;;5020536;28;20030;-88
2021/10/05 09:10:23;;;;;;;14.65;6.90;;;13.10;99.90;;;;;;5033605;28;20072;-91
2021/10/05 09:15:52;;;;;;;7.95;6.38;;;13.40;99.90;;;;;;5050994;28;20115;-91
2021/10/05 09:18:17;;;;;;;10.02;6.57;;;13.40;99.90;;;;;;5035703;28;20063;-93
2021/10/05 09:20:43;;;;;;;20.73;6.78;;;13.60;99.90;;;;;;5036262;28;20032;-90
2021/10/05 09:23:12;;;;;;;11.32;6.57;;;13.60;99.90;;;;;;5035142;28;20025;-92
2021/10/05 09:25:41;;;;;;;8.48;5.90;;;13.50;99.90;;;;;;5035049;28;20401;-90
2021/10/05 09:28:22;;;;;;;16.80;6.55;;;13.50;99.90;;;;;;5034431;28;20029;-89
2021/10/05 09:30:59;;;;;;;14.13;6.97;;;13.60;99.90;;;;;;5034332;28;20123;-87
2021/10/05 09:33:25;;;;;;;9.77;7.35;;;13.60;99.90;;;;;;5036993;28;20025;-89
2021/10/05 09:35:51;;;;;;;10.60;6.85;;;13.50;99.90;;;;;;5037881;28;20032;-89
2021/10/05 09:38:20;;;;;;;12.60;6.82;;;13.60;99.90;;;;;;5052122;28;20029;-88
2021/10/05 09:40:58;;;;;;;9.35;7.22;;;13.60;99.90;;;;;;5052940;28;20024;-91
2021/10/05 09:43:24;;;;;;;7.38;6.60;;;13.70;99.90;;;;;;5035981;28;20513;-90
2021/10/05 09:45:49;;;;;;;8.15;6.53;;;13.80;99.90;;;;;;5036035;28;20112;-91
2021/10/05 09:48:16;;;;;;;10.15;6.32;;;14.00;99.90;;;;;;5037373;28;20063;-91
2021/10/05 09:50:42;;;;;;;11.88;7.03;;;13.90;99.90;;;;;;5036124;28;20032;-92
2021/10/05 09:53:16;;;;;;;13.80;7.32;;;14.00;99.90;;;;;;5036605;28;20025;-91
2021/10/05 09:55:46;;;;;;;11.32;6.68;;;14.10;99.90;;;;;;5036321;28;20030;-90
2021/10/05 09:58:15;;;;;;;9.48;6.60;;;14.10;99.90;;;;;;5053312;28;20029;-90
2021/10/05 10:00:45;;;;;;;15.75;7.40;;;14.10;99.90;;;;;;5060206;28;20024;-91
2021/10/05 10:03:11;;;;;;;9.75;6.28;;;14.10;99.90;;;;;;5052691;28;20497;-89
2021/10/05 10:05:44;;;;;;;11.05;6.72;;;14.00;99.90;;;;;;5037783;28;20029;-88
2021/10/05 10:08:10;;;;;;;12.50;7.63;;;14.20;99.90;;;;;;5032397;28;20021;-87
2021/10/05 10:10:39;;;;;;;10.02;6.50;;;14.30;99.90;;;;;;5033242;28;20029;-88
2021/10/05 10:13:08;;;;;;;10.65;6.47;;;14.30;99.90;;;;;;5037172;28;20021;-91
2021/10/05 10:15:38;;;;;;;9.95;7.22;;;14.40;99.90;;;;;;5054324;28;20086;-88
2021/10/05 10:18:12;;;;;;;10.80;6.30;;;14.50;99.90;;;;;;5037155;28;20025;-88
2021/10/05 10:20:40;;;;;;;8.05;6.20;;;14.60;99.90;;;;;;5036244;28;20440;-87
2021/10/05 10:23:26;;;;;;;14.20;7.00;;;14.60;99.90;;;;;;5053368;28;20511;-87
2021/10/05 10:25:58;;;;;;;10.18;6.57;;;14.70;99.90;;;;;;5052210;28;20056;-88
2021/10/05 10:28:46;;;;;;;12.52;6.57;;;14.80;99.90;;;;;;5048361;28;20516;-87
2021/10/05 10:31:27;;;;;;;9.40;6.47;;;15.00;99.90;;;;;;5046786;28;20163;-87
2021/10/05 10:33:55;;;;;;;10.82;6.43;;;14.90;99.90;;;;;;5034702;28;20025;-86
2021/10/05 10:36:36;;;;;;;9.90;6.07;;;14.90;99.90;;;;;;5043559;28;20131;-88
2021/10/05 10:39:09;;;;;;;5.70;4.78;;;14.90;99.90;;;;;;5046816;28;20035;-88
2021/10/05 10:41:38;;;;;;;12.05;5.90;;;14.90;99.90;;;;;;5044716;28;20056;-86
2021/10/05 10:44:07;;;;;;;9.38;5.70;;;14.90;99.90;;;;;;5052729;28;20099;-88
2021/10/05 10:46:38;;;;;;;12.90;6.68;;;14.80;99.90;;;;;;5043780;28;20085;-84
2021/10/05 10:49:16;;;;;;;10.02;5.25;;;14.90;99.90;;;;;;5049258;28;20035;-86
2021/10/05 10:51:44;;;;;;;11.25;5.32;;;14.90;99.90;;;;;;5056317;28;20039;-89
2021/10/05 10:54:15;;;;;;;11.18;5.15;;;14.90;99.90;;;;;;5048592;28;20028;-87
2021/10/05 10:56:43;;;;;;;8.55;5.68;;;14.90;99.90;;;;;;5039252;28;20053;-89
2021/10/05 10:59:19;;;;;;;8.55;5.63;;;14.80;99.90;;;;;;5050172;28;20032;-88
2021/10/05 11:01:49;;;;;;;8.70;4.90;;;14.80;99.90;;;;;;5043890;28;20494;-86
2021/10/05 11:04:17;;;;;;;8.43;5.13;;;14.70;99.90;;;;;;5043054;28;20031;-86
2021/10/05 11:06:48;;;;;;;14.88;5.70;;;14.80;99.90;;;;;;5036208;28;20033;-86
2021/10/05 11:09:17;;;;;;;12.98;5.43;;;14.80;99.90;;;;;;5055301;28;20029;-88
2021/10/05 11:11:46;;;;;;;6.82;4.97;;;14.70;99.90;;;;;;5042560;28;20021;-86
2021/10/05 11:14:20;;;;;;;5.93;4.78;;;14.70;99.90;;;;;;5056590;28;20491;-88
2021/10/05 11:16:58;;;;;;;8.85;5.25;;;14.60;99.90;;;;;;5063715;28;20033;-86
2021/10/05 11:19:32;;;;;;;11.43;6.15;;;14.40;99.90;;;;;;5037903;28;20048;-88
2021/10/05 11:21:59;;;;;;;8.48;5.57;;;14.30;99.90;;;;;;5051942;28;20024;-90
2021/10/05 11:25:00;;;;;;;9.35;5.97;;;14.40;99.90;;;;;;5046794;28;20112;-87
2021/10/05 11:27:27;;;;;;;14.20;5.53;;;14.40;99.90;;;;;;4977599;28;20026;-91
2021/10/05 11:30:00;;;;;;;8.18;5.47;;;14.30;99.90;;;;;;5047660;28;20041;-86
2021/10/05 11:32:26;;;;;;;10.48;5.45;;;14.20;99.90;;;;;;5064052;28;20108;-87
2021/10/05 11:34:52;;;;;;;9.57;5.47;;;14.20;99.90;;;;;;5067872;28;20032;-90
2021/10/05 11:37:19;;;;;;;13.43;5.03;;;14.10;99.90;;;;;;5061418;28;20021;-88
2021/10/05 11:39:46;;;;;;;9.85;5.35;;;14.10;99.90;;;;;;5043867;28;20136;-88
2021/10/05 11:42:25;;;;;;;12.95;5.38;;;14.20;99.90;;;;;;5057029;28;20028;-87
2021/10/05 11:44:58;;;;;;;5.97;4.50;;;14.10;99.90;;;;;;5046831;28;20052;-88
2021/10/05 11:47:28;;;;;;;8.52;4.30;;;14.10;99.90;;;;;;5068296;28;20029;-91
2021/10/05 11:53:37;;;;;;;12.88;5.95;;;14.20;99.90;;;;;;5030450;28;20032;-87
2021/10/05 11:56:24;;;;;;;7.82;4.50;;;14.10;99.90;;;;;;5045276;28;20120;-89
2021/10/05 11:58:52;;;;;;;6.60;4.00;;;14.00;99.90;;;;;;5040043;28;20041;-86
2021/10/05 12:01:22;;;;;;;10.40;4.63;;;14.00;99.90;;;;;;5058128;28;20025;-88
2021/10/05 12:03:50;;;;;;;8.50;4.00;;;14.00;99.90;;;;;;5039964;28;20029;-88
2021/10/05 12:06:30;;;;;;;9.98;4.40;;;14.00;99.90;;;;;;5047848;28;20021;-89
2021/10/05 12:08:57;;;;;;;12.60;4.95;;;14.10;99.90;;;;;;5049048;28;20017;-89
2021/10/05 12:11:36;;;;;;;7.82;4.50;;;14.10;99.90;;;;;;5060840;28;20400;-92
2021/10/05 12:14:02;;;;;;;4.78;3.90;;;14.20;99.90;;;;;;5053298;28;20032;-89
2021/10/05 12:16:28;;;;;;;9.90;4.50;;;14.10;99.90;;;;;;5048848;28;20025;-89
2021/10/05 12:18:58;;;;;;;9.55;4.88;;;14.10;99.90;;;;;;5060882;28;20658;-87
2021/10/05 12:21:25;;;;;;;11.38;4.43;;;14.10;99.90;;;;;;5052265;28;20463;-86
2021/10/05 12:23:54;;;;;;;8.85;4.70;;;14.10;99.90;;;;;;5050524;28;20070;-88
2021/10/05 12:26:19;;;;;;;7.78;5.38;;;14.00;99.90;;;;;;5048765;28;20036;-90
2021/10/05 12:29:07;;;;;;;6.38;4.50;;;14.20;99.90;;;;;;5045556;28;20033;-88
2021/10/05 12:31:34;;;;;;;16.15;6.15;;;14.20;99.90;;;;;;5053327;28;20496;-90
2021/10/05 12:34:05;;;;;;;9.00;5.03;;;14.10;99.90;;;;;;5038652;28;20033;-92
2021/10/05 12:36:37;;;;;;;8.32;4.90;;;14.10;99.90;;;;;;5039255;28;20092;-90
2021/10/05 12:39:14;;;;;;;7.47;4.65;;;14.10;99.90;;;;;;5036247;28;20039;-90
2021/10/05 12:41:41;;;;;;;13.50;5.72;;;14.10;99.90;;;;;;5038495;28;20021;-91
2021/10/05 12:44:18;;;;;;;18.52;5.05;;;14.00;99.90;;;;;;5039034;28;20486;-93
2021/10/05 12:46:59;;;;;;;11.57;5.35;;;14.00;99.90;;;;;;5050176;28;20051;-93
2021/10/05 12:49:26;;;;;;;7.47;4.38;;;14.20;99.90;;;;;;5026455;28;20021;-93
2021/10/05 12:51:53;;;;;;;7.45;4.00;;;14.40;99.90;;;;;;5020380;28;20022;-92
2021/10/05 12:54:20;;;;;;;9.98;3.90;;;14.50;99.90;;;;;;5020038;28;20089;-91
2021/10/05 12:56:47;;;;;;;4.57;3.70;;;14.80;99.90;;;;;;5021261;28;20032;-93
2021/10/05 12:59:14;;;;;;;5.35;3.22;;;14.90;99.90;;;;;;5020767;28;20030;-93
2021/10/05 13:01:40;;;;;;;7.20;3.35;;;14.80;99.90;;;;;;5024561;28;20032;-92
2021/10/05 13:04:07;;;;;;;5.80;3.22;;;15.00;99.90;;;;;;5039252;28;20029;-93
2021/10/05 13:06:34;;;;;;;7.40;4.05;;;15.10;99.90;;;;;;5046180;28;20017;-92
2021/10/05 13:09:02;;;;;;;5.70;3.53;;;15.20;99.90;;;;;;5042243;28;20029;-92